sensor_id;sensor_type;location;lat;lon;timestamp;temperature;humidity
23335;DHT22;11839;48.598;8.870;2023-02-28T00:00:29;0.50;91.00
23335;DHT22;11839;48.598;8.870;2023-02-28T00:02:56;0.50;90.90
23335;DHT22;11839;48.598;8.870;2023-02-28T00:05:25;0.40;91.00
23335;DHT22;11839;48.598;8.870;2023-02-28T00:07:52;0.50;91.10
23335;DHT22;11839;48.598;8.870;2023-02-28T00:10:22;0.60;91.10
23335;DHT22;11839;48.598;8.870;2023-02-28T00:12:50;0.30;91.00
23335;DHT22;11839;48.598;8.870;2023-02-28T00:15:18;0.30;91.30
23335;DHT22;11839;48.598;8.870;2023-02-28T00:17:45;0.40;91.40
23335;DHT22;11839;48.598;8.870;2023-02-28T00:20:13;0.40;91.40
23335;DHT22;11839;48.598;8.870;2023-02-28T00:22:41;0.10;91.30
23335;DHT22;11839;48.598;8.870;2023-02-28T00:25:10;0.00;91.90
23335;DHT22;11839;48.598;8.870;2023-02-28T00:27:39;0.00;91.80
23335;DHT22;11839;48.598;8.870;2023-02-28T00:30:08;-0.20;92.20
23335;DHT22;11839;48.598;8.870;2023-02-28T00:32:36;-0.10;92.30
23335;DHT22;11839;48.598;8.870;2023-02-28T00:35:03;-0.20;92.10
23335;DHT22;11839;48.598;8.870;2023-02-28T00:37:31;-0.10;92.30
23335;DHT22;11839;48.598;8.870;2023-02-28T00:39:58;-0.10;92.40
23335;DHT22;11839;48.598;8.870;2023-02-28T00:42:25;-0.10;92.50
23335;DHT22;11839;48.598;8.870;2023-02-28T00:44:53;-0.20;92.60
23335;DHT22;11839;48.598;8.870;2023-02-28T00:47:20;-0.10;92.60
23335;DHT22;11839;48.598;8.870;2023-02-28T00:49:47;0.00;92.60
23335;DHT22;11839;48.598;8.870;2023-02-28T00:52:14;-0.10;92.40
23335;DHT22;11839;48.598;8.870;2023-02-28T00:54:40;-0.30;92.60
23335;DHT22;11839;48.598;8.870;2023-02-28T00:57:07;-0.30;92.70
23335;DHT22;11839;48.598;8.870;2023-02-28T00:59:35;-0.40;92.90
23335;DHT22;11839;48.598;8.870;2023-02-28T01:02:03;-0.30;92.90
23335;DHT22;11839;48.598;8.870;2023-02-28T01:04:30;-0.40;92.80
23335;DHT22;11839;48.598;8.870;2023-02-28T01:06:56;-0.40;92.90
23335;DHT22;11839;48.598;8.870;2023-02-28T01:09:23;-0.40;92.90
23335;DHT22;11839;48.598;8.870;2023-02-28T01:11:50;-0.50;92.90
23335;DHT22;11839;48.598;8.870;2023-02-28T01:14:18;-0.60;93.10
23335;DHT22;11839;48.598;8.870;2023-02-28T01:16:45;-0.60;93.40
23335;DHT22;11839;48.598;8.870;2023-02-28T01:19:13;-0.40;93.20
23335;DHT22;11839;48.598;8.870;2023-02-28T01:21:40;-0.40;93.30
23335;DHT22;11839;48.598;8.870;2023-02-28T01:24:07;-0.40;93.20
23335;DHT22;11839;48.598;8.870;2023-02-28T01:26:34;-0.50;93.10
23335;DHT22;11839;48.598;8.870;2023-02-28T01:29:01;-0.70;93.30
23335;DHT22;11839;48.598;8.870;2023-02-28T01:31:27;-0.90;93.80
23335;DHT22;11839;48.598;8.870;2023-02-28T01:33:54;-0.90;94.20
23335;DHT22;11839;48.598;8.870;2023-02-28T01:36:23;-0.90;94.10
23335;DHT22;11839;48.598;8.870;2023-02-28T01:38:51;-1.00;94.30
23335;DHT22;11839;48.598;8.870;2023-02-28T01:41:20;-1.00;94.40
23335;DHT22;11839;48.598;8.870;2023-02-28T01:43:59;-1.10;94.30
23335;DHT22;11839;48.598;8.870;2023-02-28T01:46:28;-1.10;94.50
23335;DHT22;11839;48.598;8.870;2023-02-28T01:49:02;-1.10;94.50
23335;DHT22;11839;48.598;8.870;2023-02-28T01:51:33;-0.90;94.60
23335;DHT22;11839;48.598;8.870;2023-02-28T01:54:05;-1.00;94.70
23335;DHT22;11839;48.598;8.870;2023-02-28T01:56:40;-1.10;94.80
23335;DHT22;11839;48.598;8.870;2023-02-28T01:59:09;-1.10;95.10
23335;DHT22;11839;48.598;8.870;2023-02-28T02:01:36;-1.30;95.30
23335;DHT22;11839;48.598;8.870;2023-02-28T02:04:04;-1.40;95.60
23335;DHT22;11839;48.598;8.870;2023-02-28T02:06:36;-1.30;95.40
23335;DHT22;11839;48.598;8.870;2023-02-28T02:09:03;-1.20;95.40
23335;DHT22;11839;48.598;8.870;2023-02-28T02:11:32;-1.10;95.30
23335;DHT22;11839;48.598;8.870;2023-02-28T02:14:28;-1.10;95.40
23335;DHT22;11839;48.598;8.870;2023-02-28T02:17:07;-1.20;95.50
23335;DHT22;11839;48.598;8.870;2023-02-28T02:20:00;-1.20;95.70
23335;DHT22;11839;48.598;8.870;2023-02-28T02:22:59;-1.20;95.90
23335;DHT22;11839;48.598;8.870;2023-02-28T02:25:29;-1.30;95.80
23335;DHT22;11839;48.598;8.870;2023-02-28T02:31:35;-1.20;96.10
23335;DHT22;11839;48.598;8.870;2023-02-28T02:34:35;-1.10;95.90
23335;DHT22;11839;48.598;8.870;2023-02-28T02:37:11;-1.20;95.90
23335;DHT22;11839;48.598;8.870;2023-02-28T02:39:47;-1.20;96.20
23335;DHT22;11839;48.598;8.870;2023-02-28T02:42:19;-1.20;96.20
23335;DHT22;11839;48.598;8.870;2023-02-28T02:44:51;-1.00;96.30
23335;DHT22;11839;48.598;8.870;2023-02-28T02:47:24;-1.00;96.00
23335;DHT22;11839;48.598;8.870;2023-02-28T02:49:56;-1.00;96.00
23335;DHT22;11839;48.598;8.870;2023-02-28T02:52:29;-0.90;96.10
23335;DHT22;11839;48.598;8.870;2023-02-28T02:54:59;-1.10;96.70
23335;DHT22;11839;48.598;8.870;2023-02-28T02:57:29;-1.00;96.60
23335;DHT22;11839;48.598;8.870;2023-02-28T02:59:57;-1.00;96.60
23335;DHT22;11839;48.598;8.870;2023-02-28T03:02:26;-0.90;96.30
23335;DHT22;11839;48.598;8.870;2023-02-28T03:05:04;-0.90;96.60
23335;DHT22;11839;48.598;8.870;2023-02-28T03:07:32;-0.90;96.80
23335;DHT22;11839;48.598;8.870;2023-02-28T03:09:59;-1.00;96.90
23335;DHT22;11839;48.598;8.870;2023-02-28T03:12:33;-0.90;96.90
23335;DHT22;11839;48.598;8.870;2023-02-28T03:15:08;-0.70;97.00
23335;DHT22;11839;48.598;8.870;2023-02-28T03:17:50;-0.80;96.90
23335;DHT22;11839;48.598;8.870;2023-02-28T03:20:27;-0.80;96.80
23335;DHT22;11839;48.598;8.870;2023-02-28T03:23:08;-0.90;97.30
23335;DHT22;11839;48.598;8.870;2023-02-28T03:25:42;-1.10;97.50
23335;DHT22;11839;48.598;8.870;2023-02-28T03:28:17;-1.00;97.70
23335;DHT22;11839;48.598;8.870;2023-02-28T03:30:49;-0.90;97.60
23335;DHT22;11839;48.598;8.870;2023-02-28T03:33:21;-0.70;97.40
23335;DHT22;11839;48.598;8.870;2023-02-28T03:35:53;-0.60;97.50
23335;DHT22;11839;48.598;8.870;2023-02-28T03:38:27;-0.50;97.10
23335;DHT22;11839;48.598;8.870;2023-02-28T03:40:59;-0.40;97.30
23335;DHT22;11839;48.598;8.870;2023-02-28T03:43:31;-0.10;97.00
23335;DHT22;11839;48.598;8.870;2023-02-28T03:45:59;-0.20;96.60
23335;DHT22;11839;48.598;8.870;2023-02-28T03:48:32;-0.30;96.90
23335;DHT22;11839;48.598;8.870;2023-02-28T03:51:03;-0.30;97.20
23335;DHT22;11839;48.598;8.870;2023-02-28T03:53:35;-0.20;97.30
23335;DHT22;11839;48.598;8.870;2023-02-28T03:56:06;-0.20;97.10
23335;DHT22;11839;48.598;8.870;2023-02-28T03:58:41;-0.40;97.20
23335;DHT22;11839;48.598;8.870;2023-02-28T04:01:15;-0.30;97.30
23335;DHT22;11839;48.598;8.870;2023-02-28T04:03:43;-0.30;97.60
23335;DHT22;11839;48.598;8.870;2023-02-28T04:06:17;-0.20;97.70
23335;DHT22;11839;48.598;8.870;2023-02-28T04:08:44;-0.30;97.70
23335;DHT22;11839;48.598;8.870;2023-02-28T04:11:18;-0.30;97.90
23335;DHT22;11839;48.598;8.870;2023-02-28T04:13:46;-0.20;97.90
23335;DHT22;11839;48.598;8.870;2023-02-28T04:16:14;-0.10;97.90
23335;DHT22;11839;48.598;8.870;2023-02-28T04:18:41;0.00;97.70
23335;DHT22;11839;48.598;8.870;2023-02-28T04:21:09;-0.20;98.00
23335;DHT22;11839;48.598;8.870;2023-02-28T04:23:38;-0.50;98.20
23335;DHT22;11839;48.598;8.870;2023-02-28T04:26:05;-0.40;98.40
23335;DHT22;11839;48.598;8.870;2023-02-28T04:28:33;-0.40;98.70
23335;DHT22;11839;48.598;8.870;2023-02-28T04:31:01;-0.60;98.80
23335;DHT22;11839;48.598;8.870;2023-02-28T04:33:29;-0.60;99.10
23335;DHT22;11839;48.598;8.870;2023-02-28T04:36:00;-0.50;99.20
23335;DHT22;11839;48.598;8.870;2023-02-28T04:38:28;-0.50;99.10
23335;DHT22;11839;48.598;8.870;2023-02-28T04:40:58;-0.40;99.20
23335;DHT22;11839;48.598;8.870;2023-02-28T04:43:26;-0.20;99.10
23335;DHT22;11839;48.598;8.870;2023-02-28T04:45:54;-0.20;99.00
23335;DHT22;11839;48.598;8.870;2023-02-28T04:48:23;0.00;98.80
23335;DHT22;11839;48.598;8.870;2023-02-28T04:50:50;0.00;98.70
23335;DHT22;11839;48.598;8.870;2023-02-28T04:53:17;-0.10;98.90
23335;DHT22;11839;48.598;8.870;2023-02-28T04:55:44;0.00;98.80
23335;DHT22;11839;48.598;8.870;2023-02-28T04:58:13;0.00;98.80
23335;DHT22;11839;48.598;8.870;2023-02-28T05:00:39;0.00;98.70
23335;DHT22;11839;48.598;8.870;2023-02-28T05:03:06;0.10;98.70
23335;DHT22;11839;48.598;8.870;2023-02-28T05:05:33;0.10;98.80
23335;DHT22;11839;48.598;8.870;2023-02-28T05:08:00;0.10;98.40
23335;DHT22;11839;48.598;8.870;2023-02-28T05:10:27;0.10;99.10
23335;DHT22;11839;48.598;8.870;2023-02-28T05:12:54;0.30;98.70
23335;DHT22;11839;48.598;8.870;2023-02-28T05:15:22;0.20;98.80
23335;DHT22;11839;48.598;8.870;2023-02-28T05:17:49;0.10;99.10
23335;DHT22;11839;48.598;8.870;2023-02-28T05:20:16;0.30;99.30
23335;DHT22;11839;48.598;8.870;2023-02-28T05:22:43;0.30;99.00
23335;DHT22;11839;48.598;8.870;2023-02-28T05:25:12;0.10;99.30
23335;DHT22;11839;48.598;8.870;2023-02-28T05:27:40;0.20;99.30
23335;DHT22;11839;48.598;8.870;2023-02-28T05:30:08;0.20;99.20
23335;DHT22;11839;48.598;8.870;2023-02-28T05:32:37;0.10;99.60
23335;DHT22;11839;48.598;8.870;2023-02-28T05:35:05;0.30;99.80
23335;DHT22;11839;48.598;8.870;2023-02-28T05:37:32;0.20;99.60
23335;DHT22;11839;48.598;8.870;2023-02-28T05:39:59;0.10;99.90
23335;DHT22;11839;48.598;8.870;2023-02-28T05:42:26;0.20;99.90
23335;DHT22;11839;48.598;8.870;2023-02-28T05:44:52;0.10;99.90
23335;DHT22;11839;48.598;8.870;2023-02-28T05:47:19;-0.10;99.90
23335;DHT22;11839;48.598;8.870;2023-02-28T05:49:47;-0.10;99.90
23335;DHT22;11839;48.598;8.870;2023-02-28T05:52:14;-0.10;99.90
23335;DHT22;11839;48.598;8.870;2023-02-28T05:54:41;-0.10;99.90
23335;DHT22;11839;48.598;8.870;2023-02-28T05:57:08;0.30;99.90
23335;DHT22;11839;48.598;8.870;2023-02-28T05:59:34;0.40;99.90
23335;DHT22;11839;48.598;8.870;2023-02-28T06:02:05;0.00;99.90
23335;DHT22;11839;48.598;8.870;2023-02-28T06:04:32;0.00;99.90
23335;DHT22;11839;48.598;8.870;2023-02-28T06:07:00;0.20;99.90
23335;DHT22;11839;48.598;8.870;2023-02-28T06:09:27;0.30;99.90
23335;DHT22;11839;48.598;8.870;2023-02-28T06:11:54;0.10;99.90
23335;DHT22;11839;48.598;8.870;2023-02-28T06:14:21;0.10;99.90
23335;DHT22;11839;48.598;8.870;2023-02-28T06:16:48;0.00;99.90
23335;DHT22;11839;48.598;8.870;2023-02-28T06:19:15;0.10;99.90
23335;DHT22;11839;48.598;8.870;2023-02-28T06:21:42;0.20;99.90
23335;DHT22;11839;48.598;8.870;2023-02-28T06:24:10;-0.10;99.90
23335;DHT22;11839;48.598;8.870;2023-02-28T06:26:37;-0.10;99.90
23335;DHT22;11839;48.598;8.870;2023-02-28T06:29:04;0.10;99.90
23335;DHT22;11839;48.598;8.870;2023-02-28T06:31:31;0.20;99.90
23335;DHT22;11839;48.598;8.870;2023-02-28T06:33:58;0.30;99.90
23335;DHT22;11839;48.598;8.870;2023-02-28T06:36:25;0.50;99.90
23335;DHT22;11839;48.598;8.870;2023-02-28T06:38:51;0.50;99.90
23335;DHT22;11839;48.598;8.870;2023-02-28T06:41:23;0.60;99.90
23335;DHT22;11839;48.598;8.870;2023-02-28T06:43:50;0.40;99.90
23335;DHT22;11839;48.598;8.870;2023-02-28T06:46:17;0.30;99.90
23335;DHT22;11839;48.598;8.870;2023-02-28T06:48:44;0.30;99.90
23335;DHT22;11839;48.598;8.870;2023-02-28T06:51:13;0.50;99.90
23335;DHT22;11839;48.598;8.870;2023-02-28T06:53:41;0.60;99.90
23335;DHT22;11839;48.598;8.870;2023-02-28T06:56:09;0.80;99.90
23335;DHT22;11839;48.598;8.870;2023-02-28T06:58:38;0.80;99.90
23335;DHT22;11839;48.598;8.870;2023-02-28T07:01:06;0.60;99.90
23335;DHT22;11839;48.598;8.870;2023-02-28T07:03:34;0.70;99.90
23335;DHT22;11839;48.598;8.870;2023-02-28T07:06:02;0.80;99.90
23335;DHT22;11839;48.598;8.870;2023-02-28T07:08:29;0.90;99.90
23335;DHT22;11839;48.598;8.870;2023-02-28T07:10:57;0.90;99.90
23335;DHT22;11839;48.598;8.870;2023-02-28T07:13:25;0.70;99.90
23335;DHT22;11839;48.598;8.870;2023-02-28T07:15:57;0.80;99.90
23335;DHT22;11839;48.598;8.870;2023-02-28T07:18:24;0.90;99.90
23335;DHT22;11839;48.598;8.870;2023-02-28T07:20:51;0.80;99.90
23335;DHT22;11839;48.598;8.870;2023-02-28T07:23:17;1.10;99.90
23335;DHT22;11839;48.598;8.870;2023-02-28T07:25:44;1.20;99.90
23335;DHT22;11839;48.598;8.870;2023-02-28T07:28:12;1.40;99.90
23335;DHT22;11839;48.598;8.870;2023-02-28T07:30:39;1.30;99.80
23335;DHT22;11839;48.598;8.870;2023-02-28T07:33:08;1.50;99.30
23335;DHT22;11839;48.598;8.870;2023-02-28T07:35:35;1.50;99.70
23335;DHT22;11839;48.598;8.870;2023-02-28T07:38:02;1.70;99.70
23335;DHT22;11839;48.598;8.870;2023-02-28T07:40:29;1.60;98.90
23335;DHT22;11839;48.598;8.870;2023-02-28T07:42:56;1.50;98.90
23335;DHT22;11839;48.598;8.870;2023-02-28T07:45:23;1.40;98.70
23335;DHT22;11839;48.598;8.870;2023-02-28T07:47:49;1.40;99.20
23335;DHT22;11839;48.598;8.870;2023-02-28T07:50:18;1.20;98.90
23335;DHT22;11839;48.598;8.870;2023-02-28T07:52:45;1.20;99.00
23335;DHT22;11839;48.598;8.870;2023-02-28T07:55:12;1.10;99.30
23335;DHT22;11839;48.598;8.870;2023-02-28T07:57:39;1.10;99.20
23335;DHT22;11839;48.598;8.870;2023-02-28T08:00:08;1.40;99.30
23335;DHT22;11839;48.598;8.870;2023-02-28T08:02:38;1.50;98.20
23335;DHT22;11839;48.598;8.870;2023-02-28T08:05:06;1.20;98.30
23335;DHT22;11839;48.598;8.870;2023-02-28T08:07:34;1.40;98.80
23335;DHT22;11839;48.598;8.870;2023-02-28T08:10:01;1.70;98.40
23335;DHT22;11839;48.598;8.870;2023-02-28T08:12:28;1.90;97.70
23335;DHT22;11839;48.598;8.870;2023-02-28T08:14:55;1.60;97.30
23335;DHT22;11839;48.598;8.870;2023-02-28T08:17:21;1.90;97.80
23335;DHT22;11839;48.598;8.870;2023-02-28T08:19:48;1.90;97.20
23335;DHT22;11839;48.598;8.870;2023-02-28T08:22:15;2.10;97.60
23335;DHT22;11839;48.598;8.870;2023-02-28T08:24:44;1.70;97.20
23335;DHT22;11839;48.598;8.870;2023-02-28T08:27:11;1.40;97.80
23335;DHT22;11839;48.598;8.870;2023-02-28T08:29:38;1.60;98.00
23335;DHT22;11839;48.598;8.870;2023-02-28T08:32:06;2.00;97.20
23335;DHT22;11839;48.598;8.870;2023-02-28T08:34:33;1.80;97.40
23335;DHT22;11839;48.598;8.870;2023-02-28T08:37:00;1.60;97.00
23335;DHT22;11839;48.598;8.870;2023-02-28T08:39:26;1.60;97.20
23335;DHT22;11839;48.598;8.870;2023-02-28T08:41:54;2.10;97.30
23335;DHT22;11839;48.598;8.870;2023-02-28T08:44:21;2.20;96.60
23335;DHT22;11839;48.598;8.870;2023-02-28T08:46:48;1.90;96.70
23335;DHT22;11839;48.598;8.870;2023-02-28T08:49:15;1.90;96.90
23335;DHT22;11839;48.598;8.870;2023-02-28T08:51:42;1.90;97.00
23335;DHT22;11839;48.598;8.870;2023-02-28T08:54:09;2.00;96.80
23335;DHT22;11839;48.598;8.870;2023-02-28T08:56:38;1.70;97.40
23335;DHT22;11839;48.598;8.870;2023-02-28T08:59:08;1.70;97.00
23335;DHT22;11839;48.598;8.870;2023-02-28T09:01:35;1.40;97.00
23335;DHT22;11839;48.598;8.870;2023-02-28T09:04:02;1.40;97.50
23335;DHT22;11839;48.598;8.870;2023-02-28T09:06:29;1.40;97.80
23335;DHT22;11839;48.598;8.870;2023-02-28T09:08:58;1.50;97.80
23335;DHT22;11839;48.598;8.870;2023-02-28T09:11:27;1.40;97.10
23335;DHT22;11839;48.598;8.870;2023-02-28T09:13:54;1.50;97.30
23335;DHT22;11839;48.598;8.870;2023-02-28T09:16:26;1.40;97.00
23335;DHT22;11839;48.598;8.870;2023-02-28T09:18:53;1.50;97.20
23335;DHT22;11839;48.598;8.870;2023-02-28T09:21:20;1.60;97.10
23335;DHT22;11839;48.598;8.870;2023-02-28T09:23:48;1.50;97.30
23335;DHT22;11839;48.598;8.870;2023-02-28T09:26:16;1.60;97.10
23335;DHT22;11839;48.598;8.870;2023-02-28T09:28:43;1.50;97.10
23335;DHT22;11839;48.598;8.870;2023-02-28T09:31:13;1.60;97.10
23335;DHT22;11839;48.598;8.870;2023-02-28T09:33:42;1.70;97.20
23335;DHT22;11839;48.598;8.870;2023-02-28T09:36:10;2.40;97.00
23335;DHT22;11839;48.598;8.870;2023-02-28T09:38:37;2.90;95.90
23335;DHT22;11839;48.598;8.870;2023-02-28T09:41:11;2.80;95.40
23335;DHT22;11839;48.598;8.870;2023-02-28T09:43:43;2.50;96.20
23335;DHT22;11839;48.598;8.870;2023-02-28T09:46:18;3.10;95.90
23335;DHT22;11839;48.598;8.870;2023-02-28T09:48:51;3.10;95.10
23335;DHT22;11839;48.598;8.870;2023-02-28T09:51:30;2.70;95.40
23335;DHT22;11839;48.598;8.870;2023-02-28T09:54:00;2.40;96.40
23335;DHT22;11839;48.598;8.870;2023-02-28T09:56:33;2.30;95.50
23335;DHT22;11839;48.598;8.870;2023-02-28T09:59:06;2.40;95.60
23335;DHT22;11839;48.598;8.870;2023-02-28T10:01:38;2.50;95.50
23335;DHT22;11839;48.598;8.870;2023-02-28T10:04:14;2.80;96.10
23335;DHT22;11839;48.598;8.870;2023-02-28T10:06:46;3.30;94.20
23335;DHT22;11839;48.598;8.870;2023-02-28T10:09:17;2.60;94.40
23335;DHT22;11839;48.598;8.870;2023-02-28T10:11:46;2.20;95.50
23335;DHT22;11839;48.598;8.870;2023-02-28T10:14:16;2.50;96.00
23335;DHT22;11839;48.598;8.870;2023-02-28T10:16:46;3.00;95.70
23335;DHT22;11839;48.598;8.870;2023-02-28T10:19:22;3.30;94.40
23335;DHT22;11839;48.598;8.870;2023-02-28T10:21:55;2.70;94.70
23335;DHT22;11839;48.598;8.870;2023-02-28T10:24:27;2.50;94.70
23335;DHT22;11839;48.598;8.870;2023-02-28T10:27:00;2.30;95.00
23335;DHT22;11839;48.598;8.870;2023-02-28T10:29:27;2.50;95.40
23335;DHT22;11839;48.598;8.870;2023-02-28T10:31:55;3.10;95.50
23335;DHT22;11839;48.598;8.870;2023-02-28T10:34:24;3.60;94.70
23335;DHT22;11839;48.598;8.870;2023-02-28T10:36:51;3.60;93.60
23335;DHT22;11839;48.598;8.870;2023-02-28T10:39:35;3.20;94.10
23335;DHT22;11839;48.598;8.870;2023-02-28T10:42:03;2.80;94.10
23335;DHT22;11839;48.598;8.870;2023-02-28T10:44:31;2.80;94.30
23335;DHT22;11839;48.598;8.870;2023-02-28T10:46:58;3.00;94.20
23335;DHT22;11839;48.598;8.870;2023-02-28T10:49:27;3.10;94.00
23335;DHT22;11839;48.598;8.870;2023-02-28T10:51:56;3.30;94.20
23335;DHT22;11839;48.598;8.870;2023-02-28T10:54:30;3.70;93.60
23335;DHT22;11839;48.598;8.870;2023-02-28T10:57:14;3.50;92.90
23335;DHT22;11839;48.598;8.870;2023-02-28T10:59:43;3.20;93.70
23335;DHT22;11839;48.598;8.870;2023-02-28T11:02:31;3.10;93.90
23335;DHT22;11839;48.598;8.870;2023-02-28T11:05:00;2.90;94.00
23335;DHT22;11839;48.598;8.870;2023-02-28T11:07:27;3.00;93.70
23335;DHT22;11839;48.598;8.870;2023-02-28T11:09:55;2.70;94.00
23335;DHT22;11839;48.598;8.870;2023-02-28T11:12:28;2.30;94.70
23335;DHT22;11839;48.598;8.870;2023-02-28T11:14:57;2.50;94.70
23335;DHT22;11839;48.598;8.870;2023-02-28T11:17:27;2.70;93.80
23335;DHT22;11839;48.598;8.870;2023-02-28T11:19:57;2.60;94.40
23335;DHT22;11839;48.598;8.870;2023-02-28T11:22:27;3.20;94.00
23335;DHT22;11839;48.598;8.870;2023-02-28T11:24:57;3.30;93.30
23335;DHT22;11839;48.598;8.870;2023-02-28T11:27:26;4.10;93.20
23335;DHT22;11839;48.598;8.870;2023-02-28T11:30:26;4.10;92.60
23335;DHT22;11839;48.598;8.870;2023-02-28T11:32:54;4.00;92.20
23335;DHT22;11839;48.598;8.870;2023-02-28T11:35:23;4.10;91.90
23335;DHT22;11839;48.598;8.870;2023-02-28T11:37:52;4.10;92.10
23335;DHT22;11839;48.598;8.870;2023-02-28T11:40:24;3.90;92.10
23335;DHT22;11839;48.598;8.870;2023-02-28T11:43:06;4.20;92.00
23335;DHT22;11839;48.598;8.870;2023-02-28T11:45:50;4.40;91.60
23335;DHT22;11839;48.598;8.870;2023-02-28T11:48:23;3.70;92.40
23335;DHT22;11839;48.598;8.870;2023-02-28T11:51:02;3.90;92.60
23335;DHT22;11839;48.598;8.870;2023-02-28T11:53:53;4.00;92.20
23335;DHT22;11839;48.598;8.870;2023-02-28T11:56:26;4.20;92.10
23335;DHT22;11839;48.598;8.870;2023-02-28T12:02:05;4.70;91.50
23335;DHT22;11839;48.598;8.870;2023-02-28T12:04:40;3.80;91.90
23335;DHT22;11839;48.598;8.870;2023-02-28T12:07:15;4.00;91.90
23335;DHT22;11839;48.598;8.870;2023-02-28T12:09:52;4.20;92.00
23335;DHT22;11839;48.598;8.870;2023-02-28T12:12:34;4.20;92.00
23335;DHT22;11839;48.598;8.870;2023-02-28T12:15:22;4.20;92.10
23335;DHT22;11839;48.598;8.870;2023-02-28T12:17:59;3.90;92.60
23335;DHT22;11839;48.598;8.870;2023-02-28T12:20:35;3.50;92.40
23335;DHT22;11839;48.598;8.870;2023-02-28T12:23:22;3.90;92.40
23335;DHT22;11839;48.598;8.870;2023-02-28T12:26:06;4.40;92.10
23335;DHT22;11839;48.598;8.870;2023-02-28T12:28:39;5.20;91.60
23335;DHT22;11839;48.598;8.870;2023-02-28T12:31:11;5.60;91.00
23335;DHT22;11839;48.598;8.870;2023-02-28T12:33:43;6.10;90.50
23335;DHT22;11839;48.598;8.870;2023-02-28T12:36:13;6.60;90.50
23335;DHT22;11839;48.598;8.870;2023-02-28T12:38:46;7.10;89.30
23335;DHT22;11839;48.598;8.870;2023-02-28T12:41:17;7.00;89.20
23335;DHT22;11839;48.598;8.870;2023-02-28T12:43:48;6.50;87.70
23335;DHT22;11839;48.598;8.870;2023-02-28T12:46:21;6.00;88.60
23335;DHT22;11839;48.598;8.870;2023-02-28T12:48:53;5.40;88.50
23335;DHT22;11839;48.598;8.870;2023-02-28T12:51:22;4.90;90.50
23335;DHT22;11839;48.598;8.870;2023-02-28T12:53:58;5.50;90.40
23335;DHT22;11839;48.598;8.870;2023-02-28T12:56:35;5.90;90.10
23335;DHT22;11839;48.598;8.870;2023-02-28T12:59:12;5.60;88.40
23335;DHT22;11839;48.598;8.870;2023-02-28T13:02:01;5.10;89.70
23335;DHT22;11839;48.598;8.870;2023-02-28T13:04:45;4.20;90.80
23335;DHT22;11839;48.598;8.870;2023-02-28T13:07:39;4.10;91.50
23335;DHT22;11839;48.598;8.870;2023-02-28T13:10:10;4.20;92.00
23335;DHT22;11839;48.598;8.870;2023-02-28T13:12:47;4.70;91.10
23335;DHT22;11839;48.598;8.870;2023-02-28T13:15:18;5.50;91.20
23335;DHT22;11839;48.598;8.870;2023-02-28T13:17:48;5.40;90.70
23335;DHT22;11839;48.598;8.870;2023-02-28T13:20:18;5.50;89.90
23335;DHT22;11839;48.598;8.870;2023-02-28T13:22:46;5.20;89.70
23335;DHT22;11839;48.598;8.870;2023-02-28T13:34:39;5.10;91.40
23335;DHT22;11839;48.598;8.870;2023-02-28T13:37:32;5.60;90.90
23335;DHT22;11839;48.598;8.870;2023-02-28T13:40:27;6.50;89.80
23335;DHT22;11839;48.598;8.870;2023-02-28T13:42:54;6.40;89.60
23335;DHT22;11839;48.598;8.870;2023-02-28T13:45:24;6.50;88.10
23335;DHT22;11839;48.598;8.870;2023-02-28T13:47:54;6.00;87.70
23335;DHT22;11839;48.598;8.870;2023-02-28T13:50:27;5.80;88.90
23335;DHT22;11839;48.598;8.870;2023-02-28T13:55:50;6.10;90.00
23335;DHT22;11839;48.598;8.870;2023-02-28T13:58:49;5.60;90.00
23335;DHT22;11839;48.598;8.870;2023-02-28T14:01:29;6.10;90.10
23335;DHT22;11839;48.598;8.870;2023-02-28T14:06:59;5.90;89.50
23335;DHT22;11839;48.598;8.870;2023-02-28T14:09:28;5.80;88.80
23335;DHT22;11839;48.598;8.870;2023-02-28T14:11:56;5.80;88.80
23335;DHT22;11839;48.598;8.870;2023-02-28T14:14:54;5.80;89.10
23335;DHT22;11839;48.598;8.870;2023-02-28T14:17:24;5.70;90.20
23335;DHT22;11839;48.598;8.870;2023-02-28T14:19:51;6.00;89.10
23335;DHT22;11839;48.598;8.870;2023-02-28T14:22:39;6.40;88.00
23335;DHT22;11839;48.598;8.870;2023-02-28T14:25:17;6.30;88.60
23335;DHT22;11839;48.598;8.870;2023-02-28T14:27:49;6.60;88.20
23335;DHT22;11839;48.598;8.870;2023-02-28T14:30:42;6.40;88.70
23335;DHT22;11839;48.598;8.870;2023-02-28T14:33:26;6.40;88.00
23335;DHT22;11839;48.598;8.870;2023-02-28T14:36:04;6.10;88.40
23335;DHT22;11839;48.598;8.870;2023-02-28T14:38:37;6.20;88.60
23335;DHT22;11839;48.598;8.870;2023-02-28T14:41:15;6.00;88.90
23335;DHT22;11839;48.598;8.870;2023-02-28T14:43:49;6.10;88.40
23335;DHT22;11839;48.598;8.870;2023-02-28T14:46:18;6.40;88.20
23335;DHT22;11839;48.598;8.870;2023-02-28T14:48:46;6.30;87.20
23335;DHT22;11839;48.598;8.870;2023-02-28T14:51:19;6.30;87.90
23335;DHT22;11839;48.598;8.870;2023-02-28T14:53:50;6.20;88.30
23335;DHT22;11839;48.598;8.870;2023-02-28T14:56:23;6.30;89.00
23335;DHT22;11839;48.598;8.870;2023-02-28T14:58:55;6.60;87.90
23335;DHT22;11839;48.598;8.870;2023-02-28T15:01:23;6.90;88.10
23335;DHT22;11839;48.598;8.870;2023-02-28T15:03:57;6.40;87.60
23335;DHT22;11839;48.598;8.870;2023-02-28T15:06:24;6.40;88.60
23335;DHT22;11839;48.598;8.870;2023-02-28T15:11:50;6.60;87.80
23335;DHT22;11839;48.598;8.870;2023-02-28T15:14:18;6.90;87.50
23335;DHT22;11839;48.598;8.870;2023-02-28T15:16:49;6.60;87.00
23335;DHT22;11839;48.598;8.870;2023-02-28T15:19:21;6.30;87.50
23335;DHT22;11839;48.598;8.870;2023-02-28T15:21:52;6.00;87.30
23335;DHT22;11839;48.598;8.870;2023-02-28T15:24:23;6.10;88.90
23335;DHT22;11839;48.598;8.870;2023-02-28T15:26:58;6.30;88.50
23335;DHT22;11839;48.598;8.870;2023-02-28T15:29:27;6.40;87.70
23335;DHT22;11839;48.598;8.870;2023-02-28T15:31:57;6.10;87.80
23335;DHT22;11839;48.598;8.870;2023-02-28T15:34:30;6.00;88.80
23335;DHT22;11839;48.598;8.870;2023-02-28T15:36:59;6.30;88.70
23335;DHT22;11839;48.598;8.870;2023-02-28T15:39:28;6.50;87.00
23335;DHT22;11839;48.598;8.870;2023-02-28T15:42:12;6.40;87.20
23335;DHT22;11839;48.598;8.870;2023-02-28T15:44:39;6.20;87.90
23335;DHT22;11839;48.598;8.870;2023-02-28T15:47:16;6.30;88.20
23335;DHT22;11839;48.598;8.870;2023-02-28T15:49:47;6.00;87.70
23335;DHT22;11839;48.598;8.870;2023-02-28T15:52:17;6.30;88.80
23335;DHT22;11839;48.598;8.870;2023-02-28T15:54:46;6.30;88.00
23335;DHT22;11839;48.598;8.870;2023-02-28T15:57:18;6.10;88.40
23335;DHT22;11839;48.598;8.870;2023-02-28T15:59:51;6.10;88.60
23335;DHT22;11839;48.598;8.870;2023-02-28T16:02:20;6.50;87.90
23335;DHT22;11839;48.598;8.870;2023-02-28T16:04:59;6.80;87.70
23335;DHT22;11839;48.598;8.870;2023-02-28T16:07:27;7.00;86.10
23335;DHT22;11839;48.598;8.870;2023-02-28T16:09:54;6.70;86.90
23335;DHT22;11839;48.598;8.870;2023-02-28T16:12:26;6.70;86.80
23335;DHT22;11839;48.598;8.870;2023-02-28T16:14:56;6.70;86.10
23335;DHT22;11839;48.598;8.870;2023-02-28T16:17:26;6.50;87.30
23335;DHT22;11839;48.598;8.870;2023-02-28T16:19:54;6.40;87.30
23335;DHT22;11839;48.598;8.870;2023-02-28T16:22:21;6.30;87.60
23335;DHT22;11839;48.598;8.870;2023-02-28T16:24:48;6.30;88.10
23335;DHT22;11839;48.598;8.870;2023-02-28T16:27:18;6.40;88.20
23335;DHT22;11839;48.598;8.870;2023-02-28T16:29:48;6.30;88.50